createdAt,value
2019-02-06T00:00:31.492Z,4.38
2019-02-06T00:01:29.048Z,4.37
2019-02-06T00:02:28.791Z,4.22
2019-02-06T00:03:29.144Z,4.38
2019-02-06T00:04:29.076Z,4.38
2019-02-06T00:05:28.847Z,4.34
2019-02-06T00:06:29.307Z,4.34
2019-02-06T00:07:28.905Z,4.32
2019-02-06T00:08:29.417Z,4.32
2019-02-06T00:09:29.206Z,4.34
2019-02-06T00:10:28.944Z,4.31
2019-02-06T00:11:28.935Z,4.26
2019-02-06T00:12:29.355Z,4.34
2019-02-06T00:13:29.555Z,4.24
2019-02-06T00:14:29.256Z,4.26
2019-02-06T00:15:29.320Z,4.26
2019-02-06T00:16:29.361Z,4.24
2019-02-06T00:17:29.106Z,4.31
2019-02-06T00:18:29.343Z,4.2
2019-02-06T00:19:29.333Z,4.23
2019-02-06T00:20:29.448Z,4.24
2019-02-06T00:21:29.667Z,4.22
2019-02-06T00:22:29.359Z,4.22
2019-02-06T00:23:29.367Z,4.17
2019-02-06T00:24:29.393Z,4.16
2019-02-06T00:25:29.142Z,4.17
2019-02-06T00:26:29.160Z,4.22
2019-02-06T00:27:29.429Z,4.16
2019-02-06T00:28:29.444Z,4.14
2019-02-06T00:29:29.824Z,4.16
2019-02-06T00:30:29.767Z,4.14
2019-02-06T00:31:29.238Z,4.1
2019-02-06T00:32:29.256Z,4.16
2019-02-06T00:33:29.380Z,4.17
2019-02-06T00:34:29.548Z,4.13
2019-02-06T00:35:31.026Z,4.14
2019-02-06T00:36:29.793Z,4.2
2019-02-06T00:37:29.580Z,4.17
2019-02-06T00:38:29.602Z,4.1
2019-02-06T00:39:29.359Z,4.08
2019-02-06T00:40:29.633Z,4.08
2019-02-06T00:41:29.647Z,4.17
2019-02-06T00:42:29.661Z,4.06
2019-02-06T00:43:29.938Z,4.13
2019-02-06T00:44:30.225Z,4.02
2019-02-06T00:45:29.721Z,4.13
2019-02-06T00:46:29.726Z,4.02
2019-02-06T00:47:29.487Z,4.05
2019-02-06T00:48:29.757Z,4.16
2019-02-06T00:49:29.775Z,4.04
2019-02-06T00:50:29.538Z,4.13
2019-02-06T00:51:29.808Z,4.02
2019-02-06T00:52:30.745Z,4.13
2019-02-06T00:53:30.102Z,4.06
2019-02-06T00:54:29.596Z,4.14
2019-02-06T00:55:29.867Z,4.05
2019-02-06T00:56:29.991Z,4.12
2019-02-06T00:57:29.639Z,4.12
2019-02-06T00:58:29.926Z,4.08
2019-02-06T00:59:29.663Z,4.06
2019-02-06T01:00:30.538Z,4.04
2019-02-06T01:01:30.210Z,4.01
2019-02-06T01:02:30.101Z,4.05
2019-02-06T01:03:30.005Z,4.08
2019-02-06T01:04:30.007Z,4.02
2019-02-06T01:05:42.368Z,4.05
2019-02-06T01:06:30.032Z,3.98
2019-02-06T01:07:30.316Z,3.99
2019-02-06T01:08:30.064Z,4.01
2019-02-06T01:09:30.450Z,4.04
2019-02-06T01:10:30.102Z,4.04
2019-02-06T01:11:30.115Z,4.05
2019-02-06T01:12:30.432Z,4.02
2019-02-06T01:13:29.886Z,4.06
2019-02-06T01:14:30.177Z,4.05
2019-02-06T01:15:30.981Z,4.05
2019-02-06T01:16:30.189Z,3.96
2019-02-06T01:17:30.692Z,4.02
2019-02-06T01:18:30.234Z,4.05
2019-02-06T01:19:30.267Z,4.05
2019-02-06T01:20:30.247Z,4.02
2019-02-06T01:21:30.272Z,3.99
2019-02-06T01:22:30.331Z,4.01
2019-02-06T01:23:30.300Z,3.98
2019-02-06T01:24:30.062Z,4.01
2019-02-06T01:25:30.070Z,3.99
2019-02-06T01:26:30.611Z,3.94
2019-02-06T01:27:30.094Z,3.95
2019-02-06T01:28:30.383Z,4.06
2019-02-06T01:29:30.405Z,4.04
2019-02-06T01:30:30.967Z,3.96
2019-02-06T01:31:30.426Z,4.02
2019-02-06T01:32:30.443Z,4.02
2019-02-06T01:33:30.449Z,4.01
2019-02-06T01:34:30.460Z,3.98
2019-02-06T01:35:30.226Z,3.99
2019-02-06T01:36:30.238Z,4.01
2019-02-06T01:37:30.545Z,3.96
2019-02-06T01:38:30.526Z,4.01
2019-02-06T01:39:30.291Z,4.05
2019-02-06T01:40:30.298Z,4.01
2019-02-06T01:41:30.309Z,4.01
2019-02-06T01:42:30.589Z,4.05
2019-02-06T01:43:30.604Z,3.95
2019-02-06T01:44:30.622Z,4.04
2019-02-06T01:45:31.242Z,3.98
2019-02-06T01:46:30.651Z,4.04
2019-02-06T01:47:30.415Z,3.94
2019-02-06T01:48:30.946Z,3.95
2019-02-06T01:49:30.442Z,3.95
2019-02-06T01:50:30.460Z,3.96
2019-02-06T01:51:30.754Z,3.94
2019-02-06T01:52:30.894Z,4.01
2019-02-06T01:53:30.764Z,4.05
2019-02-06T01:54:30.775Z,3.96
2019-02-06T01:55:30.785Z,4.01
2019-02-06T01:56:30.805Z,4.01
2019-02-06T01:57:31.144Z,3.95
2019-02-06T01:58:30.590Z,3.96
2019-02-06T01:59:30.598Z,4.01
2019-02-06T02:00:31.716Z,3.99
2019-02-06T02:01:31.139Z,3.98
2019-02-06T02:02:30.641Z,4.01
2019-02-06T02:03:30.660Z,3.91
2019-02-06T02:04:30.671Z,3.94
2019-02-06T02:05:30.682Z,3.91
2019-02-06T02:06:30.951Z,3.91
2019-02-06T02:07:30.900Z,3.96
2019-02-06T02:08:30.981Z,3.88
2019-02-06T02:09:30.742Z,3.95
2019-02-06T02:10:30.758Z,3.96
2019-02-06T02:11:30.779Z,3.91
2019-02-06T02:12:30.784Z,3.96
2019-02-06T02:13:30.808Z,3.98
2019-02-06T02:14:30.822Z,3.95
2019-02-06T02:15:31.612Z,3.96
2019-02-06T02:16:30.854Z,3.95
2019-02-06T02:17:31.124Z,3.92
2019-02-06T02:18:31.133Z,3.95
2019-02-06T02:19:30.897Z,3.94
2019-02-06T02:20:30.918Z,3.99
2019-02-06T02:21:31.184Z,3.87
2019-02-06T02:22:31.203Z,3.99
2019-02-06T02:23:31.624Z,3.98
2019-02-06T02:24:30.971Z,4.01
2019-02-06T02:25:31.506Z,3.92
2019-02-06T02:26:31.268Z,3.98
2019-02-06T02:27:31.267Z,3.92
2019-02-06T02:28:31.287Z,3.94
2019-02-06T02:29:31.144Z,3.91
2019-02-06T02:30:31.100Z,3.96
2019-02-06T02:31:33.285Z,3.88
2019-02-06T02:32:31.353Z,3.99
2019-02-06T02:33:31.137Z,4.01
2019-02-06T02:34:31.490Z,3.92
2019-02-06T02:35:31.407Z,3.98
2019-02-06T02:36:31.423Z,3.96
2019-02-06T02:37:31.185Z,3.92
2019-02-06T02:38:31.462Z,3.98
2019-02-06T02:39:31.619Z,3.95
2019-02-06T02:40:31.497Z,3.95
2019-02-06T02:41:31.520Z,3.95
2019-02-06T02:42:31.260Z,3.98
2019-02-06T02:43:31.525Z,3.91
2019-02-06T02:44:31.800Z,3.95
2019-02-06T02:45:31.818Z,3.95
2019-02-06T02:46:32.279Z,3.98
2019-02-06T02:47:31.593Z,3.98
2019-02-06T02:48:31.594Z,3.96
2019-02-06T02:49:31.619Z,3.95
2019-02-06T02:50:31.631Z,3.94
2019-02-06T02:51:31.395Z,3.98
2019-02-06T02:52:31.666Z,3.98
2019-02-06T02:53:31.419Z,4.01
2019-02-06T02:54:31.875Z,4.01
2019-02-06T02:55:31.451Z,4.01
2019-02-06T02:56:31.475Z,4.01
2019-02-06T02:57:31.747Z,4.01
2019-02-06T02:58:31.769Z,4.04
2019-02-06T02:59:31.512Z,3.99
2019-02-06T03:00:31.528Z,3.98
2019-02-06T03:01:31.548Z,3.99
2019-02-06T03:02:31.948Z,4.02
2019-02-06T03:03:31.556Z,4.02
2019-02-06T03:04:31.704Z,4.04
2019-02-06T03:05:31.859Z,4.05
2019-02-06T03:06:33.273Z,4.04
2019-02-06T03:07:31.902Z,4.02
2019-02-06T03:08:31.902Z,4.01
2019-02-06T03:09:32.276Z,4.05
2019-02-06T03:10:31.935Z,4.04
2019-02-06T03:11:32.228Z,4.08
2019-02-06T03:12:31.701Z,3.99
2019-02-06T03:13:31.720Z,4.06
2019-02-06T03:14:31.737Z,4.05
2019-02-06T03:15:32.276Z,4.06
2019-02-06T03:16:32.029Z,4.08
2019-02-06T03:17:32.719Z,4.01
2019-02-06T03:18:32.054Z,4.05
2019-02-06T03:19:31.823Z,4.06
2019-02-06T03:20:32.097Z,4.08
2019-02-06T03:21:32.105Z,4.04
2019-02-06T03:22:35.261Z,4.06
2019-02-06T03:23:32.152Z,4.05
2019-02-06T03:24:32.300Z,4.04
2019-02-06T03:25:32.173Z,4.08
2019-02-06T03:26:32.182Z,4.06
2019-02-06T03:27:31.934Z,4.02
2019-02-06T03:28:31.955Z,4.08
2019-02-06T03:29:31.972Z,4.06
2019-02-06T03:30:31.993Z,4.05
2019-02-06T03:31:32.047Z,4.04
2019-02-06T03:32:32.339Z,4.1
2019-02-06T03:33:32.791Z,4.08
2019-02-06T03:34:32.320Z,4.08
2019-02-06T03:35:32.074Z,4.12
2019-02-06T03:36:44.114Z,4.1
2019-02-06T03:37:32.085Z,4.14
2019-02-06T03:38:32.104Z,4.06
2019-02-06T03:39:32.387Z,4.13
2019-02-06T03:40:32.705Z,4.14
2019-02-06T03:41:32.670Z,4.2
2019-02-06T03:42:32.421Z,4.16
2019-02-06T03:43:32.726Z,4.13
2019-02-06T03:44:32.718Z,4.12
2019-02-06T03:45:32.222Z,4.1
2019-02-06T03:46:32.254Z,4.13
2019-02-06T03:47:33.117Z,4.14
2019-02-06T03:48:32.517Z,4.17
2019-02-06T03:49:32.534Z,4.13
2019-02-06T03:50:32.557Z,4.14
2019-02-06T03:51:32.300Z,4.1
2019-02-06T03:52:32.591Z,4.16
2019-02-06T03:53:32.865Z,4.17
2019-02-06T03:54:32.357Z,4.16
2019-02-06T03:55:33.271Z,4.14
2019-02-06T03:56:32.392Z,4.08
2019-02-06T03:57:32.665Z,4.17
2019-02-06T03:58:32.405Z,4.17
2019-02-06T03:59:32.429Z,4.1
2019-02-06T04:00:32.704Z,4.13
2019-02-06T04:01:32.461Z,4.14
2019-02-06T04:02:32.476Z,4.16
2019-02-06T04:03:33.154Z,4.17
2019-02-06T04:04:32.776Z,4.22
2019-02-06T04:05:32.781Z,4.1
2019-02-06T04:06:32.789Z,4.19
2019-02-06T04:07:32.929Z,4.22
2019-02-06T04:08:32.557Z,4.2
2019-02-06T04:09:32.578Z,4.22
2019-02-06T04:10:33.367Z,4.17
2019-02-06T04:11:32.611Z,4.24
2019-02-06T04:12:32.633Z,4.22
2019-02-06T04:13:32.771Z,4.22
2019-02-06T04:14:32.929Z,4.17
2019-02-06T04:15:32.676Z,4.2
2019-02-06T04:16:32.710Z,4.16
2019-02-06T04:17:32.959Z,4.23
2019-02-06T04:18:33.426Z,4.22
2019-02-06T04:19:32.725Z,4.24
2019-02-06T04:20:33.266Z,4.26
2019-02-06T04:21:33.026Z,4.28
2019-02-06T04:22:33.045Z,4.24
2019-02-06T04:23:33.069Z,4.22
2019-02-06T04:24:33.074Z,4.3
2019-02-06T04:25:33.332Z,4.23
2019-02-06T04:26:33.203Z,4.23
2019-02-06T04:27:32.855Z,4.23
2019-02-06T04:28:33.395Z,4.32
2019-02-06T04:29:33.154Z,4.2
2019-02-06T04:30:32.933Z,4.26
2019-02-06T04:31:33.429Z,4.28
2019-02-06T04:32:32.933Z,4.32
2019-02-06T04:33:33.326Z,4.22
2019-02-06T04:34:32.968Z,4.26
2019-02-06T04:35:33.608Z,4.22
2019-02-06T04:36:33.512Z,4.28
2019-02-06T04:37:33.264Z,4.35
2019-02-06T04:38:33.553Z,4.26
2019-02-06T04:39:33.301Z,4.23
2019-02-06T04:40:33.318Z,4.28
2019-02-06T04:41:33.900Z,4.22
2019-02-06T04:42:33.626Z,4.28
2019-02-06T04:43:33.361Z,4.24
2019-02-06T04:44:33.627Z,4.28
2019-02-06T04:45:33.387Z,4.31
2019-02-06T04:46:33.408Z,4.31
2019-02-06T04:47:33.165Z,4.3
2019-02-06T04:48:36.758Z,4.28
2019-02-06T04:49:33.497Z,4.24
2019-02-06T04:50:33.470Z,4.22
2019-02-06T04:51:33.477Z,4.28
2019-02-06T04:52:33.494Z,4.26
2019-02-06T04:53:33.515Z,4.26
2019-02-06T04:54:33.289Z,4.3
2019-02-06T04:55:33.811Z,4.37
2019-02-06T04:56:33.771Z,4.34
2019-02-06T04:57:33.568Z,4.26
2019-02-06T04:58:33.845Z,4.3
2019-02-06T04:59:33.346Z,4.3
2019-02-06T05:00:33.884Z,4.3
2019-02-06T05:01:33.895Z,4.35
2019-02-06T05:02:33.838Z,4.32
2019-02-06T05:03:33.685Z,4.34
2019-02-06T05:04:34.366Z,4.35
2019-02-06T05:05:33.434Z,4.34
2019-02-06T05:06:33.983Z,4.34
2019-02-06T05:07:33.991Z,4.3
2019-02-06T05:08:33.730Z,4.26
2019-02-06T05:09:33.755Z,4.26
2019-02-06T05:10:33.776Z,4.32
2019-02-06T05:11:33.885Z,4.24
2019-02-06T05:12:34.063Z,4.28
2019-02-06T05:13:34.069Z,4.4
2019-02-06T05:14:33.568Z,4.24
2019-02-06T05:15:33.846Z,4.31
2019-02-06T05:16:34.121Z,4.34
2019-02-06T05:17:33.894Z,4.35
2019-02-06T05:18:33.641Z,4.35
2019-02-06T05:19:34.416Z,4.34
2019-02-06T05:20:33.687Z,4.35
2019-02-06T05:21:33.938Z,4.35
2019-02-06T05:22:34.221Z,4.35
2019-02-06T05:23:33.714Z,4.37
2019-02-06T05:24:34.111Z,4.37
2019-02-06T05:25:33.996Z,4.24
2019-02-06T05:26:34.018Z,4.37
2019-02-06T05:27:34.299Z,4.37
2019-02-06T05:28:34.051Z,4.32
2019-02-06T05:29:34.354Z,4.32
2019-02-06T05:30:34.082Z,4.34
2019-02-06T05:31:34.350Z,4.34
2019-02-06T05:32:34.111Z,4.37
2019-02-06T05:33:34.141Z,4.38
2019-02-06T05:34:34.556Z,4.37
2019-02-06T05:35:34.160Z,4.38
2019-02-06T05:36:34.173Z,4.38
2019-02-06T05:37:36.957Z,4.41
2019-02-06T05:38:33.950Z,4.35
2019-02-06T05:39:34.070Z,4.26
2019-02-06T05:40:33.982Z,4.32
2019-02-06T05:41:34.015Z,4.2
2019-02-06T05:42:34.564Z,4.24
2019-02-06T05:43:34.532Z,4.32
2019-02-06T05:44:34.299Z,4.35
2019-02-06T05:45:34.065Z,4.34
2019-02-06T05:46:34.584Z,4.38
2019-02-06T05:47:34.624Z,4.3
2019-02-06T05:48:34.109Z,4.34
2019-02-06T05:49:34.914Z,4.32
2019-02-06T05:50:34.397Z,4.35
2019-02-06T05:51:34.138Z,4.34
2019-02-06T05:52:34.678Z,4.4
2019-02-06T05:53:34.706Z,4.28
2019-02-06T05:54:34.528Z,4.32
2019-02-06T05:55:34.476Z,4.41
2019-02-06T05:56:34.236Z,4.37
2019-02-06T05:57:34.534Z,4.32
2019-02-06T05:58:34.248Z,4.32
2019-02-06T05:59:34.269Z,4.41
2019-02-06T06:00:34.548Z,4.48
2019-02-06T06:01:34.357Z,4.32
2019-02-06T06:02:34.578Z,4.32
2019-02-06T06:03:34.586Z,4.38
2019-02-06T06:04:34.803Z,4.35
2019-02-06T06:05:37.652Z,4.35
2019-02-06T06:06:34.389Z,4.42
2019-02-06T06:07:46.792Z,4.32
2019-02-06T06:08:34.681Z,4.32
2019-02-06T06:09:34.941Z,4.4
2019-02-06T06:10:34.983Z,4.32
2019-02-06T06:11:34.734Z,4.38
2019-02-06T06:12:34.689Z,4.4
2019-02-06T06:13:34.758Z,4.35
2019-02-06T06:14:34.506Z,4.35
2019-02-06T06:15:35.033Z,4.35
2019-02-06T06:16:34.789Z,4.37
2019-02-06T06:17:35.063Z,4.38
2019-02-06T06:18:34.575Z,4.38
2019-02-06T06:19:35.370Z,4.4
2019-02-06T06:20:34.615Z,4.34
2019-02-06T06:21:34.622Z,4.4
2019-02-06T06:22:34.645Z,4.34
2019-02-06T06:23:34.907Z,4.38
2019-02-06T06:24:35.169Z,4.38
2019-02-06T06:25:34.971Z,4.31
2019-02-06T06:26:34.991Z,4.4
2019-02-06T06:27:34.702Z,4.34
2019-02-06T06:28:34.972Z,4.35
2019-02-06T06:29:34.992Z,4.37
2019-02-06T06:30:35.004Z,4.31
2019-02-06T06:31:35.040Z,4.3
2019-02-06T06:32:36.736Z,4.4
2019-02-06T06:33:35.313Z,4.34
2019-02-06T06:34:35.680Z,4.37
2019-02-06T06:35:35.088Z,4.32
2019-02-06T06:36:35.363Z,4.38
2019-02-06T06:37:35.369Z,4.32
2019-02-06T06:38:35.150Z,4.31
2019-02-06T06:39:35.438Z,4.3
2019-02-06T06:40:35.460Z,4.37
2019-02-06T06:41:35.174Z,4.4
2019-02-06T06:42:35.205Z,4.31
2019-02-06T06:43:34.956Z,4.37
2019-02-06T06:44:34.975Z,4.38
2019-02-06T06:45:34.978Z,4.34
2019-02-06T06:46:34.994Z,4.37
2019-02-06T06:47:35.263Z,4.32
2019-02-06T06:48:35.282Z,4.38
2019-02-06T06:49:35.299Z,4.4
2019-02-06T06:50:35.054Z,4.32
2019-02-06T06:51:35.066Z,4.35
2019-02-06T06:52:35.085Z,4.4
2019-02-06T06:53:35.375Z,4.4
2019-02-06T06:54:35.374Z,4.31
2019-02-06T06:55:37.368Z,4.38
2019-02-06T06:56:35.411Z,4.32
2019-02-06T06:57:35.890Z,4.32
2019-02-06T06:58:35.435Z,4.3
2019-02-06T06:59:35.254Z,4.35
2019-02-06T07:00:35.228Z,4.35
2019-02-06T07:01:35.226Z,4.37
2019-02-06T07:02:36.733Z,4.35
2019-02-06T07:03:35.263Z,4.32
2019-02-06T07:04:35.529Z,4.37
2019-02-06T07:05:35.929Z,4.32
2019-02-06T07:06:35.563Z,4.48
2019-02-06T07:07:35.583Z,4.32
2019-02-06T07:08:35.595Z,4.34
2019-02-06T07:09:35.606Z,4.37
2019-02-06T07:10:35.360Z,4.32
2019-02-06T07:11:35.625Z,4.4
2019-02-06T07:12:36.026Z,4.34
2019-02-06T07:13:35.414Z,4.4
2019-02-06T07:14:35.431Z,4.34
2019-02-06T07:15:35.446Z,4.37
2019-02-06T07:16:35.981Z,4.4
2019-02-06T07:17:35.728Z,4.4
2019-02-06T07:18:35.741Z,4.37
2019-02-06T07:19:35.760Z,4.35
2019-02-06T07:20:36.360Z,4.3
2019-02-06T07:21:35.792Z,4.34
2019-02-06T07:22:35.810Z,4.34
2019-02-06T07:23:36.079Z,4.37
2019-02-06T07:24:35.834Z,4.4
2019-02-06T07:25:35.594Z,4.48
2019-02-06T07:26:35.623Z,4.34
2019-02-06T07:27:35.626Z,4.41
2019-02-06T07:28:36.259Z,4.44
2019-02-06T07:29:35.906Z,4.4
2019-02-06T07:30:35.678Z,4.42
2019-02-06T07:31:35.692Z,4.42
2019-02-06T07:32:38.818Z,4.42
2019-02-06T07:33:35.809Z,4.53
2019-02-06T07:34:35.728Z,4.55
2019-02-06T07:35:36.534Z,4.48
2019-02-06T07:36:35.769Z,4.5
2019-02-06T07:37:35.780Z,4.49
2019-02-06T07:38:35.795Z,4.5
2019-02-06T07:39:35.829Z,4.48
2019-02-06T07:40:36.187Z,4.49
2019-02-06T07:41:35.834Z,4.58
2019-02-06T07:42:35.859Z,4.68
2019-02-06T07:43:36.232Z,4.62
2019-02-06T07:44:35.891Z,4.67
2019-02-06T07:45:36.156Z,4.62
2019-02-06T07:46:36.180Z,4.6
2019-02-06T07:47:36.295Z,4.71
2019-02-06T07:48:36.207Z,4.66
2019-02-06T07:49:35.962Z,4.67
2019-02-06T07:50:36.050Z,4.7
2019-02-06T07:51:36.538Z,4.75
2019-02-06T07:52:36.269Z,4.75
2019-02-06T07:53:36.537Z,4.74
2019-02-06T07:54:36.307Z,4.77
2019-02-06T07:55:36.566Z,4.77
2019-02-06T07:56:36.076Z,4.8
2019-02-06T07:57:36.344Z,4.75
2019-02-06T07:58:36.887Z,4.75
2019-02-06T07:59:36.135Z,4.82
2019-02-06T08:00:36.406Z,4.87
2019-02-06T08:01:36.668Z,4.8
2019-02-06T08:02:36.534Z,4.89
2019-02-06T08:03:36.178Z,4.94
2019-02-06T08:04:36.465Z,4.94
2019-02-06T08:05:36.217Z,4.97
2019-02-06T08:06:37.021Z,4.94
2019-02-06T08:07:36.363Z,5
2019-02-06T08:08:40.467Z,4.93
2019-02-06T08:09:36.273Z,4.93
2019-02-06T08:10:36.807Z,5.07
2019-02-06T08:11:36.843Z,4.92
2019-02-06T08:12:36.593Z,4.96
2019-02-06T08:13:36.664Z,4.97
2019-02-06T08:14:36.345Z,5.1
2019-02-06T08:15:36.636Z,5.08
2019-02-06T08:16:36.640Z,5.07
2019-02-06T08:17:36.922Z,5
2019-02-06T08:18:36.415Z,5.05
2019-02-06T08:19:36.431Z,5.07
2019-02-06T08:20:36.976Z,5.05
2019-02-06T08:21:37.584Z,5.11
2019-02-06T08:22:36.497Z,5.08
2019-02-06T08:23:36.827Z,5.17
2019-02-06T08:24:37.027Z,5.17
2019-02-06T08:25:36.784Z,5.05
2019-02-06T08:26:36.796Z,5.14
2019-02-06T08:27:36.807Z,5.11
2019-02-06T08:28:36.564Z,5.17
2019-02-06T08:29:37.509Z,5.15
2019-02-06T08:30:36.875Z,5.14
2019-02-06T08:31:36.915Z,5.14
2019-02-06T08:32:37.960Z,5.11
2019-02-06T08:33:36.909Z,5.14
2019-02-06T08:34:36.933Z,5.12
2019-02-06T08:35:36.942Z,5.21
2019-02-06T08:36:37.117Z,5.23
2019-02-06T08:37:36.965Z,5.25
2019-02-06T08:38:47.260Z,5.26
2019-02-06T08:39:36.741Z,5.35
2019-02-06T08:40:36.775Z,5.29
2019-02-06T08:41:36.771Z,5.32
2019-02-06T08:42:36.793Z,5.33
2019-02-06T08:43:37.059Z,5.33
2019-02-06T08:44:37.427Z,5.38
2019-02-06T08:45:36.898Z,5.35
2019-02-06T08:46:37.117Z,5.36
2019-02-06T08:47:37.520Z,5.38
2019-02-06T08:48:36.882Z,5.47
2019-02-06T08:49:37.417Z,5.41
2019-02-06T08:50:37.181Z,5.53
2019-02-06T08:51:36.924Z,5.56
2019-02-06T08:52:37.726Z,5.53
2019-02-06T08:53:37.225Z,5.56
2019-02-06T08:54:37.490Z,5.47
2019-02-06T08:55:37.014Z,5.54
2019-02-06T08:56:37.272Z,5.65
2019-02-06T08:57:37.536Z,5.53
2019-02-06T08:58:37.042Z,5.66
2019-02-06T08:59:38.766Z,5.65
2019-02-06T09:00:37.343Z,5.69
2019-02-06T09:01:37.356Z,5.71
2019-02-06T09:02:37.674Z,5.73
2019-02-06T09:03:37.111Z,5.68
2019-02-06T09:04:37.145Z,5.76
2019-02-06T09:05:37.148Z,5.76
2019-02-06T09:06:37.435Z,5.82
2019-02-06T09:07:37.980Z,5.8
2019-02-06T09:08:37.463Z,5.91
2019-02-06T09:09:37.475Z,5.84
2019-02-06T09:10:37.234Z,5.76
2019-02-06T09:11:37.508Z,5.91
2019-02-06T09:12:37.256Z,5.9
2019-02-06T09:13:37.524Z,5.99
2019-02-06T09:14:37.728Z,5.93
2019-02-06T09:15:37.967Z,5.97
2019-02-06T09:16:37.316Z,6.01
2019-02-06T09:17:37.606Z,6.07
2019-02-06T09:18:37.627Z,5.99
2019-02-06T09:19:37.649Z,6.07
2019-02-06T09:20:37.443Z,6.11
2019-02-06T09:21:37.918Z,6.16
2019-02-06T09:22:37.851Z,6.07
2019-02-06T09:23:37.692Z,6.09
2019-02-06T09:24:37.699Z,6.19
2019-02-06T09:25:37.727Z,6.16
2019-02-06T09:26:40.542Z,6.26
2019-02-06T09:27:37.502Z,6.3
2019-02-06T09:28:39.643Z,6.3
2019-02-06T09:29:37.863Z,6.26
2019-02-06T09:30:38.544Z,6.27
2019-02-06T09:31:37.820Z,6.27
2019-02-06T09:32:38.090Z,6.33
2019-02-06T09:33:37.600Z,6.33
2019-02-06T09:34:37.883Z,6.41
2019-02-06T09:35:38.146Z,6.41
2019-02-06T09:36:38.155Z,6.42
2019-02-06T09:37:38.296Z,6.35
2019-02-06T09:38:37.670Z,6.45
2019-02-06T09:39:37.951Z,6.39
2019-02-06T09:40:37.705Z,6.42
2019-02-06T09:41:37.732Z,6.45
2019-02-06T09:42:38.256Z,6.49
2019-02-06T09:43:38.010Z,6.46
2019-02-06T09:44:38.280Z,6.46
2019-02-06T09:45:38.701Z,6.39
2019-02-06T09:46:38.058Z,6.44
2019-02-06T09:47:38.337Z,6.48
2019-02-06T09:48:38.092Z,6.56
2019-02-06T09:49:37.851Z,6.51
2019-02-06T09:50:38.121Z,6.48
2019-02-06T09:51:38.140Z,6.48
2019-02-06T09:52:38.355Z,6.52
2019-02-06T09:53:38.166Z,6.48
2019-02-06T09:54:38.188Z,6.59
2019-02-06T09:55:38.231Z,6.44
2019-02-06T09:56:38.475Z,6.62
2019-02-06T09:57:40.458Z,6.59
2019-02-06T09:58:38.343Z,6.6
2019-02-06T09:59:38.264Z,6.6
2019-02-06T10:00:38.866Z,6.66
2019-02-06T10:01:38.033Z,6.69
2019-02-06T10:02:38.058Z,6.64
2019-02-06T10:03:38.328Z,6.63
2019-02-06T10:04:38.086Z,6.69
2019-02-06T10:05:38.374Z,6.74
2019-02-06T10:06:38.387Z,6.75
2019-02-06T10:07:38.389Z,6.64
2019-02-06T10:08:38.737Z,6.74
2019-02-06T10:09:38.161Z,6.7
2019-02-06T10:10:38.704Z,6.69
2019-02-06T10:11:38.454Z,6.67
2019-02-06T10:12:38.215Z,6.66
2019-02-06T10:13:38.487Z,6.66
2019-02-06T10:14:38.239Z,6.7
2019-02-06T10:15:38.830Z,6.72
2019-02-06T10:16:38.271Z,6.69
2019-02-06T10:17:40.606Z,6.82
2019-02-06T10:18:38.573Z,6.72
2019-02-06T10:19:38.590Z,6.81
2019-02-06T10:20:38.612Z,6.84
2019-02-06T10:21:38.363Z,6.78
2019-02-06T10:22:38.637Z,6.82
2019-02-06T10:23:39.224Z,6.88
2019-02-06T10:24:38.928Z,6.82
2019-02-06T10:25:38.434Z,6.88
2019-02-06T10:26:38.440Z,6.88
2019-02-06T10:27:38.714Z,6.87
2019-02-06T10:28:38.734Z,6.93
2019-02-06T10:29:38.750Z,6.97
2019-02-06T10:30:38.766Z,6.82
2019-02-06T10:31:38.788Z,6.99
2019-02-06T10:32:38.799Z,6.88
2019-02-06T10:33:39.071Z,6.85
2019-02-06T10:34:38.828Z,6.88
2019-02-06T10:35:39.097Z,6.95
2019-02-06T10:36:38.604Z,6.95
2019-02-06T10:37:38.735Z,6.96
2019-02-06T10:38:39.287Z,6.93
2019-02-06T10:39:39.796Z,7.03
2019-02-06T10:40:38.922Z,7
2019-02-06T10:41:38.952Z,7.02
2019-02-06T10:42:38.954Z,7.11
2019-02-06T10:43:40.278Z,7
2019-02-06T10:44:38.990Z,7.07
2019-02-06T10:45:39.010Z,7.02
2019-02-06T10:46:39.616Z,7.05
2019-02-06T10:47:38.780Z,7.03
2019-02-06T10:48:39.316Z,7.07
2019-02-06T10:49:38.821Z,7.11
2019-02-06T10:50:39.086Z,7.03
2019-02-06T10:51:39.107Z,7.06
2019-02-06T10:52:39.133Z,7.14
2019-02-06T10:53:39.309Z,7.1
2019-02-06T10:54:39.153Z,7.1
2019-02-06T10:55:39.163Z,7.07
2019-02-06T10:56:38.937Z,7.06
2019-02-06T10:57:39.197Z,7.1
2019-02-06T10:58:39.070Z,7.14
2019-02-06T10:59:38.970Z,7.06
2019-02-06T11:00:39.255Z,7.21
2019-02-06T11:01:39.563Z,7.23
2019-02-06T11:02:39.607Z,7.18
2019-02-06T11:03:39.041Z,7.18
2019-02-06T11:04:39.317Z,7.2
2019-02-06T11:05:39.331Z,7.21
2019-02-06T11:06:39.086Z,7.24
2019-02-06T11:07:39.356Z,7.14
2019-02-06T11:08:39.122Z,7.23
2019-02-06T11:09:50.268Z,7.29
2019-02-06T11:10:39.416Z,7.28
2019-02-06T11:11:39.687Z,7.31
2019-02-06T11:12:39.448Z,7.29
2019-02-06T11:13:39.466Z,7.36
2019-02-06T11:14:39.476Z,7.32
2019-02-06T11:15:39.501Z,7.31
2019-02-06T11:16:39.546Z,7.28
2019-02-06T11:17:39.521Z,7.32
2019-02-06T11:18:39.293Z,7.31
2019-02-06T11:19:39.556Z,7.28
2019-02-06T11:20:39.315Z,7.42
2019-02-06T11:21:39.331Z,7.4
2019-02-06T11:22:39.864Z,7.38
2019-02-06T11:23:39.881Z,7.4
2019-02-06T11:24:40.060Z,7.39
2019-02-06T11:25:39.662Z,7.5
2019-02-06T11:26:39.681Z,7.48
2019-02-06T11:27:39.435Z,7.38
2019-02-06T11:28:39.440Z,7.51
2019-02-06T11:29:39.720Z,7.51
2019-02-06T11:30:39.475Z,7.51
2019-02-06T11:31:39.768Z,7.56
2019-02-06T11:32:40.174Z,7.61
2019-02-06T11:33:39.781Z,7.53
2019-02-06T11:34:40.060Z,7.56
2019-02-06T11:35:40.148Z,7.56
2019-02-06T11:36:40.098Z,7.6
2019-02-06T11:37:39.857Z,7.67
2019-02-06T11:38:39.870Z,7.7
2019-02-06T11:39:40.108Z,7.66
2019-02-06T11:40:39.667Z,7.67
2019-02-06T11:41:40.178Z,7.67
2019-02-06T11:42:39.669Z,7.72
2019-02-06T11:43:39.688Z,7.67
2019-02-06T11:44:39.708Z,7.7
2019-02-06T11:45:39.727Z,7.61
2019-02-06T11:46:39.991Z,7.8
2019-02-06T11:47:40.544Z,7.82
2019-02-06T11:48:40.029Z,7.79
2019-02-06T11:49:40.047Z,7.79
2019-02-06T11:50:39.828Z,7.82
2019-02-06T11:51:39.818Z,7.83
2019-02-06T11:52:40.093Z,7.87
2019-02-06T11:53:40.109Z,7.85
2019-02-06T11:54:40.207Z,7.8
2019-02-06T11:55:41.058Z,7.83
2019-02-06T11:56:39.902Z,7.9
2019-02-06T11:57:39.920Z,7.88
2019-02-06T11:58:40.471Z,7.9
2019-02-06T11:59:40.225Z,7.93
2019-02-06T12:00:39.974Z,7.95
2019-02-06T12:01:40.233Z,7.91
2019-02-06T12:02:42.198Z,7.94
2019-02-06T12:03:40.381Z,8.03
2019-02-06T12:04:40.325Z,7.93
2019-02-06T12:05:40.051Z,8
2019-02-06T12:06:40.341Z,8.03
2019-02-06T12:07:40.089Z,8.12
2019-02-06T12:08:40.106Z,8.09
2019-02-06T12:09:40.378Z,8.12
2019-02-06T12:10:41.277Z,8.12
2019-02-06T12:11:40.418Z,8.09
2019-02-06T12:12:40.175Z,8.08
2019-02-06T12:13:40.441Z,8.15
2019-02-06T12:14:40.199Z,8.1
2019-02-06T12:15:42.235Z,8.12
2019-02-06T12:16:40.240Z,8.06
2019-02-06T12:17:40.647Z,8.15
2019-02-06T12:18:40.809Z,8.1
2019-02-06T12:19:40.292Z,8.2
2019-02-06T12:20:40.815Z,8.13
2019-02-06T12:21:40.828Z,8.23
2019-02-06T12:22:40.329Z,8.16
2019-02-06T12:23:40.348Z,8.23
2019-02-06T12:24:40.632Z,8.18
2019-02-06T12:25:41.261Z,8.18
2019-02-06T12:26:40.674Z,8.24
2019-02-06T12:27:40.679Z,8.19
2019-02-06T12:28:40.430Z,8.3
2019-02-06T12:29:40.450Z,8.26
2019-02-06T12:30:40.724Z,8.33
2019-02-06T12:31:40.745Z,8.33
2019-02-06T12:32:50.662Z,8.28
2019-02-06T12:33:42.084Z,8.28
2019-02-06T12:34:40.789Z,8.31
2019-02-06T12:35:40.823Z,8.31
2019-02-06T12:36:40.569Z,8.31
2019-02-06T12:37:40.849Z,8.3
2019-02-06T12:38:52.632Z,8.31
2019-02-06T12:39:40.885Z,8.33
2019-02-06T12:40:41.281Z,8.37
2019-02-06T12:41:40.650Z,8.3
2019-02-06T12:42:40.935Z,8.31
2019-02-06T12:43:40.682Z,8.27
2019-02-06T12:44:40.699Z,8.31
2019-02-06T12:45:40.729Z,8.37
2019-02-06T12:46:40.927Z,8.28
2019-02-06T12:47:40.758Z,8.27
2019-02-06T12:48:41.029Z,8.28
2019-02-06T12:49:41.046Z,8.31
2019-02-06T12:50:41.079Z,8.3
2019-02-06T12:51:41.075Z,8.31
2019-02-06T12:52:40.842Z,8.31
2019-02-06T12:53:41.116Z,8.31
2019-02-06T12:54:41.968Z,8.28
2019-02-06T12:55:41.159Z,8.3
2019-02-06T12:56:41.439Z,8.28
2019-02-06T12:57:41.960Z,8.3
2019-02-06T12:58:41.219Z,8.28
2019-02-06T12:59:41.279Z,8.28
2019-02-06T13:00:41.240Z,8.28
2019-02-06T13:01:41.211Z,8.26
2019-02-06T13:02:41.804Z,8.26
2019-02-06T13:03:41.021Z,8.31
2019-02-06T13:04:41.447Z,8.31
2019-02-06T13:05:41.325Z,8.26
2019-02-06T13:06:41.339Z,8.33
2019-02-06T13:07:41.355Z,8.31
2019-02-06T13:08:41.112Z,8.23
2019-02-06T13:09:42.452Z,8.28
2019-02-06T13:10:41.145Z,8.27
2019-02-06T13:11:41.173Z,8.27
2019-02-06T13:12:41.170Z,8.23
2019-02-06T13:13:41.444Z,8.26
2019-02-06T13:14:41.473Z,8.33
2019-02-06T13:15:41.281Z,8.31
2019-02-06T13:16:41.499Z,8.27
2019-02-06T13:17:43.008Z,8.27
2019-02-06T13:18:41.532Z,8.28
2019-02-06T13:19:41.599Z,8.3
2019-02-06T13:20:41.570Z,8.26
2019-02-06T13:21:41.581Z,8.26